Time;durP1;ratioP1;P1;durP2;ratioP2;P2;SDS_P1;SDS_P2;PMS_P1;PMS_P2;Temp;Humidity;BMP_temperature;BMP_pressure;BME280_temperature;BME280_humidity;BME280_pressure;Samples;Min_cycle;Max_cycle;Signal;HPM_P1;HPM_P2
2022/11/21 00:00:28;;;;;;;3.40;0.20;;;;;;;;;;5103679;28;20217;-63
2022/11/21 00:02:55;;;;;;;2.43;0.10;;;;;;;;;;5094094;28;20210;-63
2022/11/21 00:05:22;;;;;;;0.50;0.10;;;;;;;;;;5099260;28;20201;-62
2022/11/21 00:07:49;;;;;;;0.30;0.20;;;;;;;;;;5100042;28;20225;-65
2022/11/21 00:10:17;;;;;;;2.30;0.30;;;;;;;;;;5101351;28;20602;-65
2022/11/21 00:12:44;;;;;;;0.20;0.20;;;;;;;;;;5098910;28;20214;-65
2022/11/21 00:15:12;;;;;;;2.73;0.43;;;;;;;;;;5096616;28;20213;-64
2022/11/21 00:17:39;;;;;;;1.17;0.40;;;;;;;;;;5098667;28;20684;-64
2022/11/21 00:20:07;;;;;;;0.30;0.20;;;;;;;;;;5098960;28;20656;-63
2022/11/21 00:22:34;;;;;;;2.80;0.47;;;;;;;;;;5102699;28;20222;-64
2022/11/21 00:25:01;;;;;;;0.37;0.37;;;;;;;;;;5099788;28;20202;-64
2022/11/21 00:27:28;;;;;;;1.27;0.37;;;;;;;;;;5104465;28;20198;-64
2022/11/21 00:29:55;;;;;;;0.90;0.30;;;;;;;;;;5102464;28;20202;-63
2022/11/21 00:32:23;;;;;;;0.20;0.20;;;;;;;;;;5102071;28;20233;-64
2022/11/21 00:34:51;;;;;;;4.63;0.43;;;;;;;;;;5101665;28;20198;-63
2022/11/21 00:37:18;;;;;;;0.20;0.20;;;;;;;;;;5101908;28;20676;-64
2022/11/21 00:39:45;;;;;;;4.13;0.23;;;;;;;;;;5099489;28;20301;-63
2022/11/21 00:42:12;;;;;;;0.20;0.20;;;;;;;;;;5102677;28;20207;-64
2022/11/21 00:44:39;;;;;;;0.57;0.30;;;;;;;;;;5097448;28;20209;-63
2022/11/21 00:47:06;;;;;;;0.63;0.23;;;;;;;;;;5102302;28;20198;-62
2022/11/21 00:49:34;;;;;;;1.17;0.23;;;;;;;;;;5102062;28;20218;-63
2022/11/21 00:52:01;;;;;;;0.40;0.20;;;;;;;;;;5098360;28;20211;-63
2022/11/21 00:54:28;;;;;;;3.00;0.60;;;;;;;;;;5100220;28;20234;-62
2022/11/21 00:56:56;;;;;;;0.30;0.30;;;;;;;;;;5101308;28;21029;-62
2022/11/21 00:59:23;;;;;;;2.40;0.43;;;;;;;;;;5100098;28;20224;-63
2022/11/21 01:01:50;;;;;;;0.70;0.70;;;;;;;;;;5098803;28;20224;-63
2022/11/21 01:04:17;;;;;;;1.63;0.57;;;;;;;;;;5097866;28;20208;-66
2022/11/21 01:06:45;;;;;;;2.43;0.40;;;;;;;;;;5100142;28;20293;-64
2022/11/21 01:09:12;;;;;;;2.10;0.50;;;;;;;;;;5097836;28;20696;-63
2022/11/21 01:11:39;;;;;;;0.33;0.33;;;;;;;;;;5099263;28;20206;-64
2022/11/21 01:14:06;;;;;;;0.43;0.43;;;;;;;;;;5097724;28;20202;-63
2022/11/21 01:16:33;;;;;;;1.23;0.47;;;;;;;;;;5101681;28;20212;-63
2022/11/21 01:19:00;;;;;;;1.60;0.40;;;;;;;;;;5099008;28;20210;-63
2022/11/21 01:21:29;;;;;;;0.27;0.27;;;;;;;;;;5098159;28;20218;-63
2022/11/21 01:23:59;;;;;;;4.20;0.37;;;;;;;;;;5100459;28;20209;-63
2022/11/21 01:26:29;;;;;;;5.03;0.80;;;;;;;;;;5104256;28;20193;-63
2022/11/21 01:28:56;;;;;;;0.87;0.63;;;;;;;;;;5101934;28;20214;-63
2022/11/21 01:31:24;;;;;;;0.33;0.33;;;;;;;;;;5090438;28;20203;-63
2022/11/21 01:33:51;;;;;;;0.40;0.40;;;;;;;;;;5091142;28;20668;-63
2022/11/21 01:36:19;;;;;;;2.23;0.53;;;;;;;;;;5109057;28;20598;-63
2022/11/21 01:38:47;;;;;;;6.90;0.60;;;;;;;;;;5106128;28;20194;-63
2022/11/21 01:41:16;;;;;;;3.43;0.57;;;;;;;;;;5104287;28;20210;-63
2022/11/21 01:43:44;;;;;;;4.13;0.37;;;;;;;;;;5106257;28;20702;-63
2022/11/21 01:46:12;;;;;;;0.30;0.30;;;;;;;;;;5093118;28;20203;-63
2022/11/21 01:48:41;;;;;;;1.03;0.63;;;;;;;;;;5093347;28;20647;-63
2022/11/21 01:51:10;;;;;;;0.47;0.47;;;;;;;;;;5107425;28;20679;-62
2022/11/21 01:53:37;;;;;;;3.60;0.63;;;;;;;;;;5098427;28;20201;-62
2022/11/21 01:56:05;;;;;;;3.70;0.60;;;;;;;;;;5108559;28;20224;-62
2022/11/21 01:58:34;;;;;;;4.60;0.50;;;;;;;;;;5098105;28;20234;-62
2022/11/21 02:01:02;;;;;;;0.20;0.20;;;;;;;;;;5090527;28;20213;-62
2022/11/21 02:03:31;;;;;;;0.40;0.40;;;;;;;;;;5104033;28;20554;-63
2022/11/21 02:05:59;;;;;;;0.70;0.40;;;;;;;;;;5097417;28;20202;-64
2022/11/21 02:08:27;;;;;;;4.73;0.50;;;;;;;;;;5102408;28;20249;-63
2022/11/21 02:10:57;;;;;;;3.60;0.50;;;;;;;;;;5109260;28;20201;-63
2022/11/21 02:13:25;;;;;;;1.07;0.60;;;;;;;;;;5090348;28;20650;-63
2022/11/21 02:15:53;;;;;;;3.90;0.57;;;;;;;;;;5099452;28;20194;-63
2022/11/21 02:18:20;;;;;;;4.23;0.80;;;;;;;;;;5096858;28;20221;-63
2022/11/21 02:20:52;;;;;;;2.60;0.70;;;;;;;;;;5094780;28;20205;-63
2022/11/21 02:23:25;;;;;;;1.63;0.50;;;;;;;;;;5100726;28;20214;-63
2022/11/21 02:25:53;;;;;;;5.20;0.87;;;;;;;;;;5101585;28;20665;-63
2022/11/21 02:28:22;;;;;;;2.00;0.40;;;;;;;;;;5096736;28;20249;-63
2022/11/21 02:30:49;;;;;;;0.67;0.67;;;;;;;;;;5093859;28;20241;-62
2022/11/21 02:33:16;;;;;;;0.97;0.33;;;;;;;;;;5098042;28;20209;-62
2022/11/21 02:35:44;;;;;;;2.60;0.60;;;;;;;;;;5096188;28;20209;-63
2022/11/21 02:38:18;;;;;;;4.07;0.50;;;;;;;;;;5100328;28;20228;-63
2022/11/21 02:40:49;;;;;;;1.27;0.20;;;;;;;;;;5099127;28;20205;-63
2022/11/21 02:43:19;;;;;;;0.20;0.20;;;;;;;;;;5093842;28;20213;-63
2022/11/21 02:45:46;;;;;;;0.93;0.47;;;;;;;;;;5095634;28;20660;-63
2022/11/21 02:48:14;;;;;;;2.97;0.60;;;;;;;;;;5098943;28;20201;-63
2022/11/21 02:50:42;;;;;;;0.70;0.70;;;;;;;;;;5092768;28;20204;-62
2022/11/21 02:53:10;;;;;;;1.57;0.50;;;;;;;;;;5096629;28;20202;-62
2022/11/21 02:55:37;;;;;;;1.87;0.80;;;;;;;;;;5097232;28;20214;-63
2022/11/21 02:58:04;;;;;;;0.87;0.43;;;;;;;;;;5089017;28;20226;-62
2022/11/21 03:00:33;;;;;;;3.03;0.97;;;;;;;;;;5095366;28;20213;-63
2022/11/21 03:03:00;;;;;;;7.93;0.50;;;;;;;;;;5100640;28;20579;-63
2022/11/21 03:05:28;;;;;;;3.63;0.83;;;;;;;;;;5096101;28;20245;-62
2022/11/21 03:07:55;;;;;;;4.73;0.67;;;;;;;;;;5099932;28;20197;-62
2022/11/21 03:10:22;;;;;;;2.23;0.60;;;;;;;;;;5089111;28;20241;-63
2022/11/21 03:12:49;;;;;;;3.40;0.70;;;;;;;;;;5095661;28;20202;-63
2022/11/21 03:15:16;;;;;;;9.10;0.73;;;;;;;;;;5102232;28;20194;-62
2022/11/21 03:17:48;;;;;;;5.43;0.87;;;;;;;;;;5091266;28;20206;-63
2022/11/21 03:20:15;;;;;;;3.23;0.97;;;;;;;;;;5090160;28;20210;-63
2022/11/21 03:22:43;;;;;;;2.70;0.50;;;;;;;;;;5094092;28;20222;-62
2022/11/21 03:25:10;;;;;;;1.63;0.47;;;;;;;;;;5091511;28;20217;-63
2022/11/21 03:27:37;;;;;;;3.63;1.00;;;;;;;;;;5090711;28;20834;-62
2022/11/21 03:30:04;;;;;;;3.60;0.70;;;;;;;;;;5090049;28;20236;-62
2022/11/21 03:32:31;;;;;;;3.83;0.80;;;;;;;;;;5091435;28;20570;-63
2022/11/21 03:35:00;;;;;;;7.30;0.70;;;;;;;;;;5093409;28;20688;-62
2022/11/21 03:37:27;;;;;;;0.13;0.13;;;;;;;;;;5094866;28;20214;-63
2022/11/21 03:39:54;;;;;;;4.63;0.90;;;;;;;;;;5098229;28;20206;-62
2022/11/21 03:42:21;;;;;;;3.87;0.43;;;;;;;;;;5096082;28;20202;-63
2022/11/21 03:44:48;;;;;;;0.40;0.40;;;;;;;;;;5089658;28;20206;-62
2022/11/21 03:47:15;;;;;;;2.33;0.50;;;;;;;;;;5096553;28;20205;-62
2022/11/21 03:49:42;;;;;;;0.53;0.30;;;;;;;;;;5105190;28;20217;-63
2022/11/21 03:52:10;;;;;;;0.80;0.40;;;;;;;;;;5098149;28;20210;-62
2022/11/21 03:54:37;;;;;;;0.40;0.40;;;;;;;;;;5099334;28;20240;-63
2022/11/21 03:57:05;;;;;;;2.63;0.33;;;;;;;;;;5089772;28;20239;-62
2022/11/21 03:59:32;;;;;;;0.20;0.20;;;;;;;;;;5093109;28;20233;-63
2022/11/21 04:01:59;;;;;;;0.30;0.20;;;;;;;;;;5089398;28;20224;-63
2022/11/21 04:04:26;;;;;;;0.43;0.17;;;;;;;;;;5092632;28;20228;-62
2022/11/21 04:06:53;;;;;;;0.20;0.20;;;;;;;;;;5092725;28;20240;-63
2022/11/21 04:09:22;;;;;;;1.23;0.30;;;;;;;;;;5094503;28;21030;-63
2022/11/21 04:11:49;;;;;;;0.20;0.20;;;;;;;;;;5094033;28;20198;-62
2022/11/21 04:14:16;;;;;;;2.00;0.40;;;;;;;;;;5093990;28;20210;-62
2022/11/21 04:16:43;;;;;;;0.10;0.10;;;;;;;;;;5093506;28;20206;-63
2022/11/21 04:19:10;;;;;;;0.23;0.23;;;;;;;;;;5091820;28;20233;-62
2022/11/21 04:21:37;;;;;;;2.43;0.40;;;;;;;;;;5089171;28;20628;-62
2022/11/21 04:24:04;;;;;;;3.33;0.40;;;;;;;;;;5087364;28;20202;-62
2022/11/21 04:26:33;;;;;;;3.30;0.63;;;;;;;;;;5093685;28;20391;-62
2022/11/21 04:29:00;;;;;;;0.20;0.20;;;;;;;;;;5105291;28;20233;-62
2022/11/21 04:31:27;;;;;;;3.97;0.30;;;;;;;;;;5090876;28;20201;-62
2022/11/21 04:33:54;;;;;;;1.07;0.50;;;;;;;;;;5089691;28;20211;-62
2022/11/21 04:36:21;;;;;;;0.10;0.10;;;;;;;;;;5092467;28;20201;-62
2022/11/21 04:38:48;;;;;;;1.50;0.27;;;;;;;;;;5098826;28;20203;-62
2022/11/21 04:41:15;;;;;;;2.23;0.20;;;;;;;;;;5089952;28;20210;-62
2022/11/21 04:43:43;;;;;;;2.20;0.30;;;;;;;;;;5091040;28;20206;-63
2022/11/21 04:46:10;;;;;;;3.67;0.23;;;;;;;;;;5105966;28;20207;-63
2022/11/21 04:48:37;;;;;;;0.40;0.20;;;;;;;;;;5106268;28;20213;-62
2022/11/21 04:51:04;;;;;;;0.83;0.30;;;;;;;;;;5095456;28;20222;-63
2022/11/21 04:53:32;;;;;;;1.33;0.40;;;;;;;;;;5092820;28;20217;-63
2022/11/21 04:55:59;;;;;;;0.97;0.47;;;;;;;;;;5094632;28;20229;-62
2022/11/21 04:58:26;;;;;;;0.13;0.13;;;;;;;;;;5098944;28;20260;-62
2022/11/21 05:00:54;;;;;;;0.60;0.30;;;;;;;;;;5097700;28;20202;-62
2022/11/21 05:03:21;;;;;;;1.70;0.37;;;;;;;;;;5096594;28;20206;-63
2022/11/21 05:05:48;;;;;;;0.67;0.33;;;;;;;;;;5096472;28;20213;-62
2022/11/21 05:08:16;;;;;;;0.13;0.13;;;;;;;;;;5097796;28;20347;-62
2022/11/21 05:13:28;;;;;;;0.73;0.30;;;;;;;;;;5103577;28;20629;-62
2022/11/21 05:15:58;;;;;;;0.93;0.40;;;;;;;;;;5099489;28;20680;-63
2022/11/21 05:18:25;;;;;;;2.17;0.40;;;;;;;;;;5100383;28;20659;-62
2022/11/21 05:20:52;;;;;;;9.17;0.67;;;;;;;;;;5097743;28;20653;-62
2022/11/21 05:23:19;;;;;;;3.13;0.70;;;;;;;;;;5090137;28;20680;-62
2022/11/21 05:25:46;;;;;;;0.60;0.50;;;;;;;;;;5102284;28;20678;-62
2022/11/21 05:28:13;;;;;;;5.13;0.90;;;;;;;;;;5091565;28;20209;-62
2022/11/21 05:30:40;;;;;;;3.33;0.50;;;;;;;;;;5091163;28;20707;-62
2022/11/21 05:33:09;;;;;;;2.53;0.87;;;;;;;;;;5089211;28;20206;-62
2022/11/21 05:35:37;;;;;;;0.63;0.63;;;;;;;;;;5104118;28;20309;-62
2022/11/21 05:38:04;;;;;;;0.43;0.43;;;;;;;;;;5108001;28;20213;-62
2022/11/21 05:40:31;;;;;;;8.10;0.40;;;;;;;;;;5101891;28;20210;-62
2022/11/21 05:45:43;;;;;;;0.20;0.20;;;;;;;;;;5096007;28;20318;-62
2022/11/21 05:48:12;;;;;;;0.30;0.30;;;;;;;;;;5105527;28;20202;-62
2022/11/21 05:50:39;;;;;;;0.87;0.57;;;;;;;;;;5095437;28;20230;-62
2022/11/21 05:53:06;;;;;;;0.57;0.57;;;;;;;;;;5092168;28;20202;-62
2022/11/21 05:55:35;;;;;;;2.00;0.53;;;;;;;;;;5088406;28;20222;-62
2022/11/21 05:58:02;;;;;;;0.40;0.40;;;;;;;;;;5091307;28;20243;-63
2022/11/21 06:00:29;;;;;;;1.63;0.87;;;;;;;;;;5094681;28;20664;-62
2022/11/21 06:05:43;;;;;;;2.47;1.07;;;;;;;;;;5100349;28;20205;-62
2022/11/21 06:08:10;;;;;;;3.13;0.30;;;;;;;;;;5103174;28;20202;-62
2022/11/21 06:10:37;;;;;;;0.50;0.50;;;;;;;;;;5101381;28;20226;-60
2022/11/21 06:13:20;;;;;;;0.90;0.50;;;;;;;;;;5108651;28;20208;-60
2022/11/21 06:15:47;;;;;;;2.53;0.53;;;;;;;;;;5102392;28;20232;-60
2022/11/21 06:18:14;;;;;;;0.30;0.30;;;;;;;;;;5096449;28;20628;-61
2022/11/21 06:20:44;;;;;;;1.17;0.40;;;;;;;;;;5090067;28;20835;-60
2022/11/21 06:23:11;;;;;;;0.30;0.30;;;;;;;;;;5093864;28;20576;-61
2022/11/21 06:25:38;;;;;;;0.30;0.30;;;;;;;;;;5105944;28;20197;-61
2022/11/21 06:28:05;;;;;;;1.30;0.30;;;;;;;;;;5095247;28;20345;-63
2022/11/21 06:30:32;;;;;;;2.37;0.40;;;;;;;;;;5090525;28;20614;-65
2022/11/21 06:32:59;;;;;;;0.30;0.30;;;;;;;;;;5091072;28;20577;-62
2022/11/21 06:35:26;;;;;;;0.67;0.67;;;;;;;;;;5102776;28;20540;-62
2022/11/21 06:37:56;;;;;;;2.37;0.23;;;;;;;;;;5108052;28;20680;-62
2022/11/21 06:40:23;;;;;;;0.90;0.43;;;;;;;;;;5095214;28;20247;-63
2022/11/21 06:42:50;;;;;;;0.13;0.13;;;;;;;;;;5090611;28;20199;-61
2022/11/21 06:45:18;;;;;;;5.30;0.30;;;;;;;;;;5092584;28;20679;-62
2022/11/21 06:47:45;;;;;;;0.20;0.20;;;;;;;;;;5101663;28;20217;-62
2022/11/21 06:50:12;;;;;;;0.53;0.30;;;;;;;;;;5105059;28;20225;-63
2022/11/21 06:52:39;;;;;;;0.20;0.20;;;;;;;;;;5097311;28;20225;-63
2022/11/21 06:55:08;;;;;;;0.10;0.10;;;;;;;;;;5089089;28;20234;-62
2022/11/21 06:57:35;;;;;;;0.20;0.20;;;;;;;;;;5086479;28;20217;-62
2022/11/21 07:00:02;;;;;;;0.20;0.20;;;;;;;;;;5092845;28;20313;-63
2022/11/21 07:02:29;;;;;;;1.13;0.60;;;;;;;;;;5094324;28;20679;-63
2022/11/21 07:04:56;;;;;;;0.30;0.30;;;;;;;;;;5109054;28;20220;-63
2022/11/21 07:07:23;;;;;;;0.50;0.50;;;;;;;;;;5089453;28;20202;-63
2022/11/21 07:09:50;;;;;;;0.37;0.30;;;;;;;;;;5083746;28;20244;-64
2022/11/21 07:15:04;;;;;;;1.60;0.37;;;;;;;;;;5087798;28;20765;-63
2022/11/21 07:17:31;;;;;;;0.50;0.40;;;;;;;;;;5093004;28;20259;-62
2022/11/21 07:19:58;;;;;;;4.13;0.40;;;;;;;;;;5099786;28;20560;-64
2022/11/21 07:22:25;;;;;;;0.20;0.20;;;;;;;;;;5099525;28;20202;-63
2022/11/21 07:24:52;;;;;;;0.30;0.30;;;;;;;;;;5091310;28;20210;-63
2022/11/21 07:27:21;;;;;;;0.47;0.10;;;;;;;;;;5097314;28;20573;-63
2022/11/21 07:29:48;;;;;;;0.50;0.50;;;;;;;;;;5107345;28;20222;-62
2022/11/21 07:32:15;;;;;;;0.23;0.23;;;;;;;;;;5090616;28;20210;-62
2022/11/21 07:34:42;;;;;;;0.20;0.20;;;;;;;;;;5088775;28;20214;-62
2022/11/21 07:37:09;;;;;;;0.30;0.30;;;;;;;;;;5102275;28;20197;-62
2022/11/21 07:39:36;;;;;;;0.10;0.10;;;;;;;;;;5099522;28;20202;-62
2022/11/21 07:42:03;;;;;;;0.23;0.10;;;;;;;;;;5109204;28;20214;-63
2022/11/21 07:44:32;;;;;;;0.47;0.20;;;;;;;;;;5094658;28;20641;-63
2022/11/21 07:46:59;;;;;;;0.60;0.27;;;;;;;;;;5089256;28;20214;-63
2022/11/21 07:49:26;;;;;;;2.47;0.20;;;;;;;;;;5088923;28;20214;-63
2022/11/21 07:51:53;;;;;;;0.10;0.10;;;;;;;;;;5089007;28;20238;-63
2022/11/21 07:54:20;;;;;;;0.30;0.30;;;;;;;;;;5088897;28;20226;-63
2022/11/21 07:56:47;;;;;;;0.23;0.23;;;;;;;;;;5088862;28;20210;-63
2022/11/21 07:59:14;;;;;;;0.73;0.20;;;;;;;;;;5088758;28;20248;-62
2022/11/21 08:01:43;;;;;;;0.57;0.40;;;;;;;;;;5089001;28;20575;-63
2022/11/21 08:04:10;;;;;;;0.40;0.40;;;;;;;;;;5088789;28;20241;-63
2022/11/21 08:06:37;;;;;;;0.97;0.23;;;;;;;;;;5088811;28;20209;-63
2022/11/21 08:09:04;;;;;;;0.30;0.30;;;;;;;;;;5088613;28;20214;-63
2022/11/21 08:11:31;;;;;;;0.40;0.30;;;;;;;;;;5088566;28;20343;-63
2022/11/21 08:13:59;;;;;;;0.40;0.40;;;;;;;;;;5089023;28;20232;-63
2022/11/21 08:16:26;;;;;;;2.03;0.27;;;;;;;;;;5088854;28;20210;-63
2022/11/21 08:18:55;;;;;;;0.40;0.40;;;;;;;;;;5089812;28;20210;-62
2022/11/21 08:21:22;;;;;;;1.03;0.40;;;;;;;;;;5092444;28;20217;-63
2022/11/21 08:23:49;;;;;;;0.30;0.30;;;;;;;;;;5093010;28;20206;-63
2022/11/21 08:26:16;;;;;;;1.30;0.50;;;;;;;;;;5092698;28;20210;-64
2022/11/21 08:28:43;;;;;;;0.70;0.30;;;;;;;;;;5092526;28;20218;-63
2022/11/21 08:31:11;;;;;;;2.63;0.63;;;;;;;;;;5092530;28;20226;-63
2022/11/21 08:33:38;;;;;;;0.40;0.40;;;;;;;;;;5092473;28;20699;-63
2022/11/21 08:36:07;;;;;;;0.67;0.67;;;;;;;;;;5093161;28;20579;-63
2022/11/21 08:38:34;;;;;;;2.73;0.50;;;;;;;;;;5092223;28;20232;-64
2022/11/21 08:43:45;;;;;;;0.43;0.43;;;;;;;;;;5111451;28;20201;-63
2022/11/21 08:46:12;;;;;;;2.33;0.50;;;;;;;;;;5109204;28;20206;-63
2022/11/21 08:48:39;;;;;;;3.20;0.80;;;;;;;;;;5108971;28;20198;-62
2022/11/21 08:51:08;;;;;;;0.63;0.60;;;;;;;;;;5110103;28;20256;-62
2022/11/21 08:53:35;;;;;;;0.60;0.57;;;;;;;;;;5110958;28;20201;-62
2022/11/21 08:56:02;;;;;;;0.60;0.60;;;;;;;;;;5106060;28;20239;-63
2022/11/21 08:58:29;;;;;;;1.50;0.60;;;;;;;;;;5092822;28;20238;-64
2022/11/21 09:00:57;;;;;;;0.60;0.43;;;;;;;;;;5095256;28;20208;-61
2022/11/21 09:03:24;;;;;;;0.53;0.53;;;;;;;;;;5108955;28;20209;-63
2022/11/21 09:05:51;;;;;;;0.40;0.40;;;;;;;;;;5100441;28;20214;-62
2022/11/21 09:08:19;;;;;;;0.60;0.53;;;;;;;;;;5091691;28;20215;-63
2022/11/21 09:10:46;;;;;;;0.70;0.40;;;;;;;;;;5091562;28;20254;-63
2022/11/21 09:13:13;;;;;;;0.93;0.53;;;;;;;;;;5091676;28;20219;-63
2022/11/21 09:18:25;;;;;;;0.83;0.40;;;;;;;;;;5107415;28;20729;-63
2022/11/21 09:20:52;;;;;;;0.47;0.47;;;;;;;;;;5109628;28;20216;-62
2022/11/21 09:23:20;;;;;;;0.43;0.40;;;;;;;;;;5093294;28;20217;-62
2022/11/21 09:25:48;;;;;;;0.70;0.50;;;;;;;;;;5092592;28;20206;-62
2022/11/21 09:28:15;;;;;;;2.00;0.57;;;;;;;;;;5091256;28;20236;-64
2022/11/21 09:30:43;;;;;;;0.60;0.40;;;;;;;;;;5096010;28;20226;-63
2022/11/21 09:33:11;;;;;;;1.07;0.47;;;;;;;;;;5110697;28;20210;-63
2022/11/21 09:35:39;;;;;;;0.70;0.30;;;;;;;;;;5110766;28;20236;-60
2022/11/21 09:38:06;;;;;;;1.03;0.50;;;;;;;;;;5111315;28;20205;-65
2022/11/21 09:40:36;;;;;;;0.40;0.40;;;;;;;;;;5093226;28;20213;-63
2022/11/21 09:43:17;;;;;;;1.17;0.60;;;;;;;;;;5090116;28;20709;-65
2022/11/21 09:45:47;;;;;;;0.93;0.40;;;;;;;;;;5070364;28;20214;-62
2022/11/21 09:48:16;;;;;;;0.40;0.40;;;;;;;;;;5093466;28;20206;-63
2022/11/21 09:50:44;;;;;;;0.53;0.50;;;;;;;;;;5088425;28;20317;-64
2022/11/21 09:53:14;;;;;;;1.73;0.40;;;;;;;;;;5094011;28;20202;-64
2022/11/21 09:55:45;;;;;;;0.53;0.30;;;;;;;;;;5095017;28;20249;-64
2022/11/21 09:58:18;;;;;;;0.40;0.40;;;;;;;;;;5090820;28;20577;-62
2022/11/21 10:00:45;;;;;;;0.57;0.40;;;;;;;;;;5096695;28;20201;-62
2022/11/21 10:03:13;;;;;;;0.40;0.40;;;;;;;;;;5110089;28;20648;-62
2022/11/21 10:05:44;;;;;;;4.60;0.30;;;;;;;;;;5098767;28;20508;-62
2022/11/21 10:08:16;;;;;;;0.60;0.47;;;;;;;;;;5109842;28;20210;-62
2022/11/21 10:10:51;;;;;;;0.33;0.33;;;;;;;;;;5108589;28;20229;-62
2022/11/21 10:13:23;;;;;;;2.07;0.30;;;;;;;;;;5089601;28;20738;-63
2022/11/21 10:15:55;;;;;;;2.80;0.40;;;;;;;;;;5090525;28;20203;-64
2022/11/21 10:18:41;;;;;;;0.40;0.40;;;;;;;;;;5095807;28;20204;-65
2022/11/21 10:21:12;;;;;;;1.13;0.43;;;;;;;;;;5110373;28;20206;-65
2022/11/21 10:23:50;;;;;;;0.30;0.30;;;;;;;;;;5103068;28;20270;-63
2022/11/21 10:26:22;;;;;;;2.33;0.50;;;;;;;;;;5098127;28;20237;-63
2022/11/21 10:28:53;;;;;;;0.83;0.47;;;;;;;;;;5090304;28;20214;-64
2022/11/21 10:31:20;;;;;;;0.40;0.40;;;;;;;;;;5090256;28;20222;-64
2022/11/21 10:33:48;;;;;;;1.70;0.40;;;;;;;;;;5110205;28;20214;-64
2022/11/21 10:36:20;;;;;;;0.43;0.43;;;;;;;;;;5103133;28;20214;-64
2022/11/21 10:38:49;;;;;;;3.13;0.40;;;;;;;;;;5089815;28;20294;-64
2022/11/21 10:41:17;;;;;;;0.43;0.30;;;;;;;;;;5089489;28;20626;-64
2022/11/21 10:46:33;;;;;;;0.47;0.47;;;;;;;;;;5089837;28;20361;-64
2022/11/21 10:49:01;;;;;;;2.40;0.47;;;;;;;;;;5101217;28;20256;-64
2022/11/21 10:51:35;;;;;;;0.50;0.30;;;;;;;;;;5106659;28;20721;-64
2022/11/21 10:56:52;;;;;;;0.70;0.30;;;;;;;;;;5089636;28;20197;-62
2022/11/21 10:59:23;;;;;;;0.20;0.20;;;;;;;;;;5088978;28;20295;-62
2022/11/21 11:01:55;;;;;;;0.40;0.40;;;;;;;;;;5089180;28;20206;-62
2022/11/21 11:04:22;;;;;;;0.60;0.57;;;;;;;;;;5089165;28;20211;-63
2022/11/21 11:06:49;;;;;;;0.67;0.20;;;;;;;;;;5089050;28;20221;-63
2022/11/21 11:09:24;;;;;;;2.63;0.30;;;;;;;;;;5096028;28;20201;-63
2022/11/21 11:11:51;;;;;;;0.30;0.30;;;;;;;;;;5109345;28;20232;-63
2022/11/21 11:14:31;;;;;;;2.07;0.30;;;;;;;;;;5109308;28;20213;-63
2022/11/21 11:16:59;;;;;;;0.97;0.30;;;;;;;;;;5109318;28;20593;-63
2022/11/21 11:19:28;;;;;;;2.63;0.30;;;;;;;;;;5109050;28;20210;-63
2022/11/21 11:21:56;;;;;;;0.70;0.33;;;;;;;;;;5102541;28;20313;-62
2022/11/21 11:24:25;;;;;;;1.43;0.60;;;;;;;;;;5089231;28;20267;-63
2022/11/21 11:26:55;;;;;;;0.20;0.20;;;;;;;;;;5088754;28;20219;-62
2022/11/21 11:29:23;;;;;;;0.30;0.30;;;;;;;;;;5089556;28;20214;-62
2022/11/21 11:31:52;;;;;;;2.83;0.43;;;;;;;;;;5090777;28;20218;-63
2022/11/21 11:34:21;;;;;;;1.87;0.30;;;;;;;;;;5092355;28;20210;-65
2022/11/21 11:37:03;;;;;;;0.20;0.20;;;;;;;;;;5088722;28;20214;-61
2022/11/21 11:39:39;;;;;;;0.60;0.30;;;;;;;;;;5101867;28;20712;-62
2022/11/21 11:48:00;;;;;;;0.60;0.37;;;;;;;;;;5090049;28;20279;-63
2022/11/21 11:50:32;;;;;;;0.30;0.30;;;;;;;;;;5099534;28;20289;-64
2022/11/21 11:53:01;;;;;;;2.67;0.30;;;;;;;;;;5088877;28;20238;-63
2022/11/21 11:55:32;;;;;;;0.40;0.40;;;;;;;;;;5106480;28;20234;-63
2022/11/21 11:58:01;;;;;;;0.30;0.30;;;;;;;;;;5092267;28;20230;-62
2022/11/21 12:00:32;;;;;;;0.83;0.30;;;;;;;;;;5103391;28;20206;-63
2022/11/21 12:03:02;;;;;;;0.77;0.47;;;;;;;;;;5105044;28;20202;-65
2022/11/21 12:05:31;;;;;;;0.83;0.30;;;;;;;;;;5106314;28;20209;-63
2022/11/21 12:08:05;;;;;;;0.63;0.10;;;;;;;;;;5112861;28;20268;-65
2022/11/21 12:10:34;;;;;;;0.73;0.30;;;;;;;;;;5099457;28;20225;-62
2022/11/21 12:13:06;;;;;;;0.70;0.60;;;;;;;;;;5108945;28;20228;-61
2022/11/21 12:15:51;;;;;;;2.73;0.30;;;;;;;;;;5105552;28;20210;-66
2022/11/21 12:18:24;;;;;;;0.80;0.57;;;;;;;;;;5108368;28;20395;-63
2022/11/21 12:20:56;;;;;;;0.30;0.30;;;;;;;;;;5083773;28;20206;-62
2022/11/21 12:23:25;;;;;;;0.67;0.50;;;;;;;;;;5099309;28;20210;-63
2022/11/21 12:25:58;;;;;;;0.57;0.40;;;;;;;;;;5099940;28;20206;-59
2022/11/21 12:28:26;;;;;;;0.40;0.40;;;;;;;;;;5098224;28;20208;-62
2022/11/21 12:31:09;;;;;;;1.90;0.40;;;;;;;;;;5112108;28;20233;-63
2022/11/21 12:33:42;;;;;;;0.67;0.43;;;;;;;;;;5106629;28;20198;-63
2022/11/21 12:36:16;;;;;;;2.47;0.40;;;;;;;;;;5102640;28;20216;-61
2022/11/21 12:38:51;;;;;;;3.23;0.40;;;;;;;;;;5110680;28;20575;-63
2022/11/21 12:44:10;;;;;;;4.37;0.70;;;;;;;;;;5098195;28;20262;-63
2022/11/21 12:46:44;;;;;;;1.07;0.50;;;;;;;;;;5091789;28;20618;-61
2022/11/21 12:55:12;;;;;;;1.20;0.40;;;;;;;;;;5106017;28;20271;-62
2022/11/21 12:57:45;;;;;;;0.53;0.30;;;;;;;;;;5091239;28;20208;-64
2022/11/21 13:00:16;;;;;;;1.73;0.60;;;;;;;;;;5092501;28;20198;-63
2022/11/21 13:02:50;;;;;;;1.87;0.40;;;;;;;;;;5109800;28;20202;-63
2022/11/21 13:05:22;;;;;;;1.03;0.50;;;;;;;;;;5099622;28;20208;-63
2022/11/21 13:07:50;;;;;;;0.20;0.20;;;;;;;;;;5110877;28;20201;-64
2022/11/21 13:10:18;;;;;;;5.10;0.53;;;;;;;;;;5109675;28;20209;-63
2022/11/21 13:12:48;;;;;;;0.57;0.30;;;;;;;;;;5110456;28;20578;-65
2022/11/21 13:15:19;;;;;;;1.03;0.50;;;;;;;;;;5106316;28;20603;-61
2022/11/21 13:17:49;;;;;;;0.33;0.33;;;;;;;;;;5095337;28;20747;-65
2022/11/21 13:20:20;;;;;;;0.97;0.63;;;;;;;;;;5095772;28;20197;-64
2022/11/21 13:22:52;;;;;;;0.30;0.23;;;;;;;;;;5096181;28;20203;-64
2022/11/21 13:25:38;;;;;;;2.37;0.50;;;;;;;;;;5103714;28;20206;-64
2022/11/21 13:28:29;;;;;;;1.40;0.40;;;;;;;;;;5106371;28;20295;-64
2022/11/21 13:30:57;;;;;;;1.70;0.50;;;;;;;;;;5096640;28;20202;-62
2022/11/21 13:33:42;;;;;;;1.70;0.30;;;;;;;;;;5108300;28;20236;-64
2022/11/21 13:36:11;;;;;;;0.40;0.33;;;;;;;;;;5095111;28;20213;-64
2022/11/21 13:38:53;;;;;;;0.60;0.60;;;;;;;;;;5093566;28;20208;-64
2022/11/21 13:44:39;;;;;;;0.80;0.40;;;;;;;;;;5092891;28;20310;-64
2022/11/21 13:47:11;;;;;;;1.50;0.37;;;;;;;;;;5093110;28;20205;-64
2022/11/21 13:49:42;;;;;;;0.30;0.30;;;;;;;;;;5095208;28;20587;-63
2022/11/21 13:52:12;;;;;;;0.53;0.40;;;;;;;;;;5097331;28;20597;-64
2022/11/21 13:54:57;;;;;;;4.17;0.80;;;;;;;;;;5101220;28;20237;-64
2022/11/21 13:57:34;;;;;;;1.53;0.87;;;;;;;;;;5089418;28;20217;-64
2022/11/21 14:00:15;;;;;;;1.23;1.13;;;;;;;;;;5101639;28;20228;-64
2022/11/21 14:02:54;;;;;;;0.40;0.40;;;;;;;;;;5110207;28;20209;-64
2022/11/21 14:05:35;;;;;;;1.27;0.63;;;;;;;;;;5109931;28;20209;-64
2022/11/21 14:08:13;;;;;;;3.13;0.80;;;;;;;;;;5096381;28;20202;-65
2022/11/21 14:10:41;;;;;;;0.63;0.63;;;;;;;;;;5093362;28;20569;-65
2022/11/21 14:13:17;;;;;;;3.83;0.63;;;;;;;;;;5109637;28;20235;-64
2022/11/21 14:15:49;;;;;;;2.73;0.70;;;;;;;;;;5099930;28;20202;-65
2022/11/21 14:18:22;;;;;;;1.07;0.60;;;;;;;;;;5089089;28;20210;-64
2022/11/21 14:20:52;;;;;;;1.00;0.67;;;;;;;;;;5089310;28;20241;-64
2022/11/21 14:23:20;;;;;;;0.60;0.60;;;;;;;;;;5089689;28;20207;-64
2022/11/21 14:25:49;;;;;;;2.90;0.60;;;;;;;;;;5095353;28;20198;-64
2022/11/21 14:28:18;;;;;;;5.07;0.70;;;;;;;;;;5089766;28;20214;-64
2022/11/21 14:30:46;;;;;;;2.47;0.70;;;;;;;;;;5093797;28;20194;-63
2022/11/21 14:33:32;;;;;;;2.70;1.20;;;;;;;;;;5102003;28;20308;-63
2022/11/21 14:36:02;;;;;;;1.93;0.80;;;;;;;;;;5089243;28;20198;-64
2022/11/21 14:38:30;;;;;;;5.43;0.70;;;;;;;;;;5092679;28;20212;-63
2022/11/21 14:41:22;;;;;;;0.70;0.60;;;;;;;;;;5095880;28;20206;-63
2022/11/21 14:43:50;;;;;;;0.83;0.43;;;;;;;;;;5090861;28;20199;-63
2022/11/21 14:46:21;;;;;;;1.37;0.60;;;;;;;;;;5094419;28;20214;-63
2022/11/21 14:48:48;;;;;;;1.70;0.43;;;;;;;;;;5082134;28;20202;-63
2022/11/21 14:51:16;;;;;;;1.70;0.40;;;;;;;;;;5096111;28;20347;-63
2022/11/21 14:53:46;;;;;;;3.10;0.77;;;;;;;;;;5092178;28;20230;-63
2022/11/21 14:56:20;;;;;;;0.63;0.63;;;;;;;;;;5096721;28;20260;-62
2022/11/21 14:58:47;;;;;;;2.27;0.80;;;;;;;;;;5091642;28;20234;-63
2022/11/21 15:01:21;;;;;;;1.67;0.60;;;;;;;;;;5088147;28;20294;-63
2022/11/21 15:03:55;;;;;;;0.73;0.40;;;;;;;;;;5088333;28;20198;-62
2022/11/21 15:06:25;;;;;;;0.93;0.40;;;;;;;;;;5087763;28;20670;-64
2022/11/21 15:08:54;;;;;;;2.83;0.50;;;;;;;;;;5089071;28;20205;-64
2022/11/21 15:11:23;;;;;;;0.67;0.57;;;;;;;;;;5089172;28;20619;-63
2022/11/21 15:13:54;;;;;;;1.27;0.77;;;;;;;;;;5090608;28;20242;-62
2022/11/21 15:16:24;;;;;;;0.50;0.50;;;;;;;;;;5089342;28;20209;-63
2022/11/21 15:18:51;;;;;;;0.50;0.50;;;;;;;;;;5093891;28;20209;-63
2022/11/21 15:21:18;;;;;;;9.10;2.83;;;;;;;;;;5095866;28;20300;-64
2022/11/21 15:23:46;;;;;;;22.13;8.40;;;;;;;;;;5095030;28;20206;-64
2022/11/21 15:26:26;;;;;;;4.90;2.33;;;;;;;;;;5088517;28;20217;-64
2022/11/21 15:28:55;;;;;;;12.80;5.93;;;;;;;;;;5095294;28;20221;-63
2022/11/21 15:31:24;;;;;;;6.60;3.63;;;;;;;;;;5104296;28;20201;-64
2022/11/21 15:33:54;;;;;;;11.90;5.70;;;;;;;;;;5088304;28;20234;-64